createdAt,value
2022-09-09T00:00:08.318Z,13.6
2022-09-09T00:05:07.843Z,13.5
2022-09-09T00:10:08.559Z,13.5
2022-09-09T00:15:08.242Z,13.6
2022-09-09T00:20:07.960Z,13.6
2022-09-09T00:25:07.669Z,13.1
2022-09-09T00:30:08.420Z,13.1
2022-09-09T00:35:08.124Z,13.5
2022-09-09T00:40:07.881Z,13.5
2022-09-09T00:45:07.652Z,13.5
2022-09-09T00:50:08.370Z,13.1
2022-09-09T00:55:08.081Z,13.1
2022-09-09T01:00:07.771Z,13.3
2022-09-09T01:05:18.440Z,13.3
2022-09-09T01:10:08.193Z,13.1
2022-09-09T01:15:07.913Z,13.1
2022-09-09T01:20:08.640Z,13.1
2022-09-09T01:25:08.325Z,13.1
2022-09-09T01:30:08.010Z,13.1
2022-09-09T01:35:07.727Z,13.1
2022-09-09T01:40:08.482Z,13.1
2022-09-09T01:45:08.276Z,13.1
2022-09-09T01:50:07.984Z,13.1
2022-09-09T01:55:07.681Z,13.1
2022-09-09T02:00:08.393Z,12.8
2022-09-09T02:05:08.119Z,12.8
2022-09-09T02:10:07.843Z,13.1
2022-09-09T02:15:08.545Z,13.1
2022-09-09T02:20:08.244Z,13.1
2022-09-09T02:25:07.910Z,13.1
2022-09-09T02:30:08.642Z,12.8
2022-09-09T02:35:08.349Z,12.8
2022-09-09T02:40:08.153Z,12.8
2022-09-09T02:45:08.315Z,12.8
2022-09-09T02:50:18.045Z,12.8
2022-09-09T02:55:07.754Z,12.8
2022-09-09T03:00:08.453Z,12.6
2022-09-09T03:05:08.215Z,12.6
2022-09-09T03:10:07.953Z,12.8
2022-09-09T03:15:07.641Z,12.8
2022-09-09T03:20:08.328Z,13.1
2022-09-09T03:25:08.023Z,13.1
2022-09-09T03:30:07.762Z,12.8
2022-09-09T03:35:08.618Z,12.8
2022-09-09T03:40:08.396Z,13.1
2022-09-09T03:45:08.162Z,13.1
2022-09-09T03:50:07.863Z,12.8
2022-09-09T03:55:08.554Z,12.8
2022-09-09T04:00:08.244Z,12.8
2022-09-09T04:05:02.076Z,12.8
2022-09-09T04:10:01.916Z,13.3
2022-09-09T04:15:02.719Z,13.3
2022-09-09T04:20:02.570Z,13.5
2022-09-09T04:25:02.397Z,13.5
2022-09-09T04:30:02.168Z,13.6
2022-09-09T04:35:01.986Z,13.6
2022-09-09T04:40:01.922Z,13.5
2022-09-09T04:45:01.763Z,13.5
2022-09-09T04:50:02.553Z,13.5
2022-09-09T04:55:02.650Z,13.5
2022-09-09T05:00:02.463Z,13.5
2022-09-09T05:05:02.349Z,13.8
2022-09-09T05:10:02.273Z,13.6
2022-09-09T05:15:02.130Z,13.6
2022-09-09T05:20:02.080Z,13.6
2022-09-09T05:25:01.998Z,14.0
2022-09-09T05:30:01.805Z,14.0
2022-09-09T05:35:02.680Z,14.1
2022-09-09T05:40:02.636Z,14.1
2022-09-09T05:45:02.519Z,14.3
2022-09-09T05:50:02.355Z,14.3
2022-09-09T05:55:02.216Z,14.6
2022-09-09T06:00:01.991Z,15.0
2022-09-09T06:05:01.719Z,15.0
2022-09-09T06:10:02.479Z,15.1
2022-09-09T06:15:02.204Z,15.5
2022-09-09T06:20:01.935Z,15.5
2022-09-09T06:25:02.711Z,15.8
2022-09-09T06:30:02.522Z,15.8
2022-09-09T06:35:02.340Z,15.8
2022-09-09T06:40:02.312Z,15.8
2022-09-09T06:45:02.112Z,15.8
2022-09-09T06:50:01.957Z,15.8
2022-09-09T06:55:01.788Z,15.8
2022-09-09T07:00:02.629Z,16.2
2022-09-09T07:05:02.529Z,16.2
2022-09-09T07:10:02.279Z,16.2
2022-09-09T07:15:02.124Z,16.2
2022-09-09T07:20:02.085Z,16.7
2022-09-09T07:25:01.846Z,16.7
2022-09-09T07:30:02.628Z,16.7
2022-09-09T07:35:02.416Z,16.7
2022-09-09T07:40:02.197Z,17.1
2022-09-09T07:45:02.073Z,17.1
2022-09-09T07:50:01.835Z,17.0
2022-09-09T07:55:02.764Z,17.0
2022-09-09T08:00:02.689Z,17.1
2022-09-09T08:05:02.534Z,17.1
2022-09-09T08:10:02.379Z,17.5
2022-09-09T08:15:02.157Z,17.5
2022-09-09T08:20:01.923Z,17.7
2022-09-09T08:25:02.788Z,17.7
2022-09-09T08:30:02.607Z,17.7
2022-09-09T08:35:02.427Z,17.7
2022-09-09T08:40:02.281Z,18.5
2022-09-09T08:45:02.119Z,18.5
2022-09-09T08:50:01.932Z,18.6
2022-09-09T08:55:01.754Z,18.6
2022-09-09T09:00:02.609Z,20.1
2022-09-09T09:05:12.399Z,20.1
2022-09-09T09:10:02.174Z,19.7
2022-09-09T09:15:02.170Z,19.7
2022-09-09T09:20:01.876Z,18.6
2022-09-09T09:25:02.680Z,18.1
2022-09-09T09:30:28.496Z,18.1
2022-09-09T09:35:01.902Z,18.1
2022-09-09T09:45:02.534Z,18.6
2022-09-09T09:50:02.349Z,20.3
2022-09-09T09:55:06.859Z,20.3
2022-09-09T10:00:02.587Z,19.3
2022-09-09T10:05:02.536Z,19.3
2022-09-09T10:10:02.464Z,19.5
2022-09-09T10:15:12.300Z,20.0
2022-09-09T10:20:02.083Z,20.1
2022-09-09T10:25:01.948Z,20.3
2022-09-09T10:30:01.879Z,20.6
2022-09-09T10:35:02.716Z,19.5
2022-09-09T10:40:02.884Z,19.7
2022-09-09T10:45:04.920Z,19.7
2022-09-09T10:50:02.907Z,19.1
2022-09-09T10:55:02.735Z,19.1
2022-09-09T11:00:02.689Z,19.5
2022-09-09T11:05:02.536Z,19.5
2022-09-09T11:10:02.535Z,19.5
2022-09-09T11:15:02.244Z,19.5
2022-09-09T11:20:02.098Z,19.3
2022-09-09T11:25:01.954Z,19.3
2022-09-09T11:30:01.833Z,19.3
2022-09-09T11:35:02.739Z,18.8
2022-09-09T11:40:02.552Z,18.7
2022-09-09T11:45:02.376Z,18.8
2022-09-09T11:50:02.191Z,19.1
2022-09-09T11:55:02.021Z,19.1
2022-09-09T12:00:01.865Z,19.0
2022-09-09T12:05:08.877Z,18.2
2022-09-09T12:10:02.622Z,15.3
2022-09-09T12:15:02.359Z,15.5
2022-09-09T12:20:02.087Z,15.3
2022-09-09T12:25:01.901Z,15.3
2022-09-09T12:30:02.772Z,15.3
2022-09-09T12:35:02.499Z,15.6
2022-09-09T12:40:02.400Z,15.8
2022-09-09T12:45:02.248Z,15.5
2022-09-09T12:50:02.082Z,15.3
2022-09-09T12:55:01.812Z,16.0
2022-09-09T13:00:02.653Z,15.8
2022-09-09T13:05:02.505Z,15.8
2022-09-09T13:10:02.513Z,16.3
2022-09-09T13:15:02.460Z,16.2
2022-09-09T13:20:02.371Z,15.8
2022-09-09T13:25:12.195Z,15.8
2022-09-09T13:30:02.131Z,17.0
2022-09-09T13:35:02.179Z,17.0
2022-09-09T13:40:02.317Z,17.2
2022-09-09T13:45:02.150Z,17.2
2022-09-09T13:50:01.966Z,20.8
2022-09-09T13:55:01.786Z,20.8
2022-09-09T14:00:06.378Z,19.7
2022-09-09T14:05:02.390Z,22.0
2022-09-09T14:10:02.212Z,22.0
2022-09-09T14:15:02.110Z,20.1
2022-09-09T14:20:01.864Z,20.1
2022-09-09T14:25:02.621Z,19.5
2022-09-09T14:30:02.467Z,19.5
2022-09-09T14:35:02.278Z,20.2
2022-09-09T14:40:02.202Z,20.7
2022-09-09T14:45:02.042Z,20.6
2022-09-09T14:50:01.775Z,20.6
2022-09-09T14:55:02.530Z,20.0
2022-09-09T15:00:02.342Z,20.0
2022-09-09T15:05:02.174Z,19.5
2022-09-09T15:10:02.022Z,19.5
2022-09-09T15:15:01.834Z,19.3
2022-09-09T15:20:02.691Z,19.3
2022-09-09T15:25:02.517Z,19.1
2022-09-09T15:30:02.336Z,19.5
2022-09-09T15:35:02.160Z,19.5
2022-09-09T15:40:01.941Z,20.1
2022-09-09T15:45:02.266Z,21.3
2022-09-09T15:50:02.178Z,21.8
2022-09-09T15:55:02.110Z,20.6
2022-09-09T16:00:02.046Z,19.7
2022-09-09T16:05:01.976Z,19.1
2022-09-09T16:10:01.925Z,19.1
2022-09-09T16:15:02.757Z,18.8
2022-09-09T16:20:02.686Z,16.6
2022-09-09T16:25:02.640Z,16.0
2022-09-09T16:30:02.464Z,16.2
2022-09-09T16:35:02.296Z,16.2
2022-09-09T16:40:02.178Z,16.0
2022-09-09T16:45:02.034Z,15.8
2022-09-09T16:50:01.857Z,15.8
2022-09-09T16:55:02.604Z,16.0
2022-09-09T17:00:02.449Z,15.8
2022-09-09T17:05:02.236Z,15.8
2022-09-09T17:10:02.012Z,15.8
2022-09-09T17:15:01.976Z,16.0
2022-09-09T17:20:01.758Z,14.3
2022-09-09T17:25:02.491Z,14.0
2022-09-09T17:30:02.228Z,14.0
2022-09-09T17:35:02.081Z,14.1
2022-09-09T17:40:02.017Z,14.0
2022-09-09T17:45:01.936Z,14.0
2022-09-09T17:50:01.756Z,14.0
2022-09-09T17:55:02.513Z,14.0
2022-09-09T18:00:02.310Z,14.0
2022-09-09T18:05:02.051Z,14.0
2022-09-09T18:10:01.874Z,14.0
2022-09-09T18:15:04.234Z,14.0
2022-09-09T18:20:02.159Z,14.0
2022-09-09T18:25:01.990Z,14.0
2022-09-09T18:30:01.808Z,13.6
2022-09-09T18:35:02.786Z,14.0
2022-09-09T18:40:02.870Z,14.0
2022-09-09T18:45:02.752Z,13.8
2022-09-09T18:50:02.584Z,13.8
2022-09-09T18:55:02.489Z,14.0
2022-09-09T19:00:02.331Z,14.0
2022-09-09T19:05:02.143Z,14.0
2022-09-09T19:10:01.897Z,14.1
2022-09-09T19:15:01.807Z,14.0
2022-09-09T19:20:02.566Z,14.0
2022-09-09T19:25:02.442Z,14.1
2022-09-09T19:30:02.248Z,14.1
2022-09-09T19:35:02.064Z,14.1
2022-09-09T19:40:01.997Z,14.1
2022-09-09T19:45:01.904Z,14.0
2022-09-09T19:50:02.840Z,14.0
2022-09-09T19:55:02.581Z,14.0
2022-09-09T20:00:02.419Z,14.0
2022-09-09T20:05:02.247Z,14.0
2022-09-09T20:10:02.115Z,14.0
2022-09-09T20:15:01.896Z,14.0
2022-09-09T20:20:02.682Z,13.8
2022-09-09T20:25:02.492Z,13.8
2022-09-09T20:30:02.325Z,13.8
2022-09-09T20:35:14.973Z,13.8
2022-09-09T20:40:07.702Z,13.6
2022-09-09T20:45:08.429Z,13.6
2022-09-09T20:50:08.194Z,13.8
2022-09-09T20:55:07.874Z,13.8
2022-09-09T21:00:08.617Z,14.0
2022-09-09T21:05:08.316Z,14.0
2022-09-09T21:10:08.041Z,14.1
2022-09-09T21:15:07.753Z,14.1
2022-09-09T21:20:08.480Z,14.1
2022-09-09T21:25:08.186Z,14.1
2022-09-09T21:30:07.881Z,14.0
2022-09-09T21:35:08.871Z,14.0
2022-09-09T21:40:08.621Z,14.1
2022-09-09T21:45:08.368Z,14.1
2022-09-09T21:50:08.118Z,14.3
2022-09-09T21:55:07.815Z,14.3
2022-09-09T22:00:08.544Z,14.3
2022-09-09T22:05:08.224Z,14.3
2022-09-09T22:10:10.078Z,14.3
2022-09-09T22:15:10.795Z,14.3
2022-09-09T22:20:18.495Z,14.3
2022-09-09T22:25:11.226Z,14.3
2022-09-09T22:30:07.922Z,14.1
2022-09-09T22:35:08.700Z,14.1
2022-09-09T22:40:08.471Z,14.3
2022-09-09T22:45:08.249Z,14.3
2022-09-09T22:50:07.922Z,14.3
2022-09-09T22:55:08.653Z,14.3
2022-09-09T23:01:00.878Z,14.3
2022-09-09T23:05:08.636Z,14.3
2022-09-09T23:10:08.026Z,14.3
2022-09-09T23:15:07.742Z,14.3
2022-09-09T23:20:08.607Z,14.3
2022-09-09T23:25:08.396Z,14.3
2022-09-09T23:30:08.061Z,14.3
2022-09-09T23:35:07.795Z,14.3
2022-09-09T23:40:08.592Z,14.3
2022-09-09T23:45:08.316Z,14.3
2022-09-09T23:50:08.016Z,14.3
2022-09-09T23:55:07.719Z,14.3
